Time;durP1;ratioP1;P1;durP2;ratioP2;P2;SDS_P1;SDS_P2;PMS_P1;PMS_P2;Temp;Humidity;BMP_temperature;BMP_pressure;BME280_temperature;BME280_humidity;BME280_pressure;Samples;Min_cycle;Max_cycle;Signal;HPM_P1;HPM_P2
2020/12/10 03:42:15;;;;;;;15.13;9.57;;;1.00;99.90;;;;;;4719846;30;20514;-80
2020/12/10 03:44:43;;;;;;;15.23;9.90;;;1.00;99.90;;;;;;4720639;30;20116;-80
2020/12/10 03:47:11;;;;;;;16.42;10.52;;;1.00;99.90;;;;;;4739284;30;20051;-80
2020/12/10 03:49:39;;;;;;;16.60;10.93;;;1.00;99.90;;;;;;4738926;30;20068;-80
2020/12/10 03:52:07;;;;;;;16.17;9.98;;;1.10;99.90;;;;;;4724522;30;20140;-80
2020/12/10 03:54:35;;;;;;;15.30;9.70;;;1.00;99.90;;;;;;4738736;30;20052;-80
2020/12/10 03:57:03;;;;;;;19.38;12.13;;;1.00;99.90;;;;;;4724377;30;20064;-80
2020/12/10 03:59:31;;;;;;;16.65;10.18;;;1.00;99.90;;;;;;4738957;30;20144;-80
2020/12/10 04:01:58;;;;;;;16.35;9.73;;;1.00;99.90;;;;;;4738819;30;20425;-80
2020/12/10 04:04:27;;;;;;;14.48;9.20;;;1.00;99.90;;;;;;4738042;30;20055;-80
2020/12/10 04:06:54;;;;;;;16.17;11.05;;;1.00;99.90;;;;;;4739044;30;20094;-80
2020/12/10 04:09:22;;;;;;;14.45;9.38;;;1.00;99.90;;;;;;4738919;30;20412;-80
2020/12/10 04:11:50;;;;;;;13.65;9.10;;;1.00;99.90;;;;;;4738999;30;20063;-80
2020/12/10 04:14:19;;;;;;;15.45;10.10;;;1.00;99.90;;;;;;4724426;30;20075;-80
2020/12/10 04:16:52;;;;;;;15.95;9.50;;;1.00;99.90;;;;;;4738734;30;20048;-80
2020/12/10 04:19:20;;;;;;;15.57;8.93;;;1.00;99.90;;;;;;4724245;30;20468;-80
2020/12/10 04:21:47;;;;;;;16.60;10.00;;;1.00;99.90;;;;;;4738547;30;20052;-80
2020/12/10 04:24:15;;;;;;;15.27;9.52;;;1.10;99.90;;;;;;4723862;30;20070;-80
2020/12/10 04:26:48;;;;;;;14.88;9.27;;;1.00;99.90;;;;;;4738444;30;20114;-80
2020/12/10 04:29:16;;;;;;;16.30;9.90;;;1.10;99.90;;;;;;4726125;30;20057;-80
2020/12/10 04:31:48;;;;;;;15.90;9.90;;;1.10;99.90;;;;;;4724817;30;20071;-81
2020/12/10 04:34:16;;;;;;;15.48;10.32;;;1.00;99.90;;;;;;4738311;30;20059;-81
2020/12/10 04:36:47;;;;;;;15.95;9.95;;;1.00;99.90;;;;;;4723949;30;20501;-81
2020/12/10 04:39:19;;;;;;;15.10;9.38;;;1.00;99.90;;;;;;4724580;30;20094;-80
2020/12/10 04:41:47;;;;;;;14.68;9.77;;;1.00;99.90;;;;;;4723515;30;20059;-81
2020/12/10 05:48:50;;;;;;;22.77;12.23;;;1.00;99.90;;;;;;4727323;30;20051;-80
2020/12/10 05:51:22;;;;;;;21.88;12.77;;;1.10;99.90;;;;;;4720099;30;20048;-81
2020/12/10 05:53:58;;;;;;;20.55;12.93;;;1.00;99.90;;;;;;4727255;30;20149;-80
2020/12/10 05:56:37;;;;;;;22.08;12.52;;;1.00;99.90;;;;;;4737147;30;20259;-80
2020/12/10 05:59:24;;;;;;;22.92;13.05;;;1.10;99.90;;;;;;4709526;30;20057;-82
2020/12/10 06:02:06;;;;;;;21.02;11.70;;;1.10;99.90;;;;;;4703539;30;20061;-81
2020/12/10 06:13:32;;;;;;;19.70;11.98;;;1.10;99.90;;;;;;5134387;24;20162;-80
2020/12/10 06:16:18;;;;;;;22.60;13.57;;;1.10;99.90;;;;;;4736944;30;20044;-80
2020/12/10 06:19:01;;;;;;;23.80;13.55;;;1.10;99.90;;;;;;4722438;30;20052;-80
2020/12/10 06:21:43;;;;;;;20.30;13.27;;;1.10;99.90;;;;;;4736679;30;20060;-80
2020/12/10 06:24:25;;;;;;;20.17;13.23;;;1.10;99.90;;;;;;4736144;30;20048;-80
2020/12/10 06:26:57;;;;;;;21.02;12.95;;;1.10;99.90;;;;;;4736281;30;20478;-80
2020/12/10 06:29:28;;;;;;;20.25;13.68;;;1.10;99.90;;;;;;4736579;30;20060;-79
2020/12/10 06:32:14;;;;;;;19.38;12.52;;;1.00;99.90;;;;;;4736187;30;20570;-79
2020/12/10 06:34:54;;;;;;;20.60;13.35;;;1.00;99.90;;;;;;4721660;30;20060;-80
2020/12/10 06:37:29;;;;;;;33.15;19.15;;;1.00;99.90;;;;;;4728842;30;20055;-80
2020/12/10 06:40:05;;;;;;;32.92;22.15;;;1.00;99.90;;;;;;4735834;30;20048;-79
2020/12/10 06:42:45;;;;;;;35.08;20.85;;;1.00;99.90;;;;;;4736095;30;20063;-80
2020/12/10 06:45:35;;;;;;;27.83;17.35;;;1.00;99.90;;;;;;4735707;30;20142;-80
2020/12/10 06:48:05;;;;;;;29.08;16.48;;;1.00;99.90;;;;;;4721441;30;20118;-80
2020/12/10 06:50:33;;;;;;;50.55;27.30;;;1.00;99.90;;;;;;4721229;30;20056;-79
2020/12/10 06:53:23;;;;;;;47.58;23.17;;;1.00;99.90;;;;;;4735472;30;20140;-80
2020/12/10 06:56:01;;;;;;;30.30;16.58;;;1.00;99.90;;;;;;4735785;30;20579;-79
2020/12/10 06:58:36;;;;;;;25.38;15.35;;;1.00;99.90;;;;;;4721382;30;20531;-80
2020/12/10 07:01:25;;;;;;;22.50;13.98;;;1.00;99.90;;;;;;4735833;30;20056;-79
2020/12/10 07:07:11;;;;;;;23.50;14.68;;;1.10;99.90;;;;;;4735505;30;20052;-78
2020/12/10 07:09:47;;;;;;;20.20;13.00;;;1.10;99.90;;;;;;4735443;30;20040;-80
2020/12/10 07:12:23;;;;;;;22.15;13.98;;;1.10;99.90;;;;;;4720936;30;20056;-79
2020/12/10 07:14:51;;;;;;;25.83;15.43;;;1.10;99.90;;;;;;4719820;30;20048;-80
2020/12/10 07:17:19;;;;;;;24.13;15.68;;;1.10;99.90;;;;;;4721009;30;20056;-80
2020/12/10 07:19:51;;;;;;;26.70;16.33;;;1.10;99.90;;;;;;4720755;30;20055;-80
2020/12/10 07:22:18;;;;;;;27.83;15.77;;;1.10;99.90;;;;;;4720831;30;20052;-79
2020/12/10 07:24:51;;;;;;;23.90;14.32;;;1.10;99.90;;;;;;4735232;30;20535;-80
2020/12/10 07:27:18;;;;;;;23.95;14.93;;;1.10;99.90;;;;;;4721368;30;20048;-80
2020/12/10 07:29:50;;;;;;;23.63;14.73;;;1.10;99.90;;;;;;4735508;30;20464;-78
2020/12/10 07:32:17;;;;;;;23.48;13.93;;;1.10;99.90;;;;;;4720873;30;20052;-80
2020/12/10 07:34:46;;;;;;;24.85;14.68;;;1.10;99.90;;;;;;4735421;30;20052;-80
2020/12/10 07:37:15;;;;;;;23.90;14.43;;;1.10;99.90;;;;;;4735344;30;20425;-80
2020/12/10 07:39:44;;;;;;;26.33;14.10;;;1.10;99.90;;;;;;4736758;30;20049;-80
2020/12/10 07:42:19;;;;;;;25.50;15.32;;;1.10;99.90;;;;;;4724215;30;20521;-80
2020/12/10 07:44:47;;;;;;;28.05;15.02;;;1.10;99.90;;;;;;4738602;30;20083;-78
2020/12/10 07:47:15;;;;;;;26.50;16.48;;;1.10;99.90;;;;;;4724121;30;20052;-79
2020/12/10 07:49:42;;;;;;;24.52;14.77;;;1.10;99.90;;;;;;4724050;30;20114;-79
2020/12/10 07:52:12;;;;;;;21.85;13.10;;;1.10;99.90;;;;;;4724302;30;20056;-80
2020/12/10 07:54:47;;;;;;;24.45;15.02;;;1.10;99.90;;;;;;4738559;30;20167;-79
2020/12/10 07:57:29;;;;;;;25.63;14.65;;;1.10;99.90;;;;;;4738373;30;20094;-79
2020/12/10 08:00:06;;;;;;;32.70;20.65;;;1.20;99.90;;;;;;4738846;30;20044;-79
2020/12/10 08:02:50;;;;;;;27.75;16.75;;;1.20;99.90;;;;;;4738496;30;20513;-80
2020/12/10 08:05:23;;;;;;;24.27;13.52;;;1.20;99.90;;;;;;4724668;30;20588;-80
2020/12/10 08:07:52;;;;;;;23.45;13.57;;;1.20;99.90;;;;;;4724202;30;20071;-80
2020/12/10 08:10:30;;;;;;;23.48;13.45;;;1.20;99.90;;;;;;4738552;30;20065;-79
2020/12/10 08:13:12;;;;;;;23.52;13.68;;;1.20;99.90;;;;;;4723940;30;20077;-80
2020/12/10 08:15:46;;;;;;;22.63;11.88;;;1.20;99.90;;;;;;4738860;30;20406;-79
2020/12/10 08:18:20;;;;;;;21.48;12.35;;;1.20;99.90;;;;;;4723840;30;20451;-80
2020/12/10 08:20:51;;;;;;;25.73;13.27;;;1.20;99.90;;;;;;4738319;30;20056;-79
2020/12/10 08:23:20;;;;;;;27.13;14.43;;;1.20;99.90;;;;;;4738357;30;20060;-80
2020/12/10 08:26:08;;;;;;;24.27;13.70;;;1.30;99.90;;;;;;4724309;30;20552;-80
2020/12/10 08:28:36;;;;;;;25.48;14.48;;;1.20;99.90;;;;;;4709629;30;20087;-80
2020/12/10 08:31:03;;;;;;;28.02;15.57;;;1.30;99.90;;;;;;4738229;30;20056;-80
2020/12/10 08:33:37;;;;;;;33.33;17.35;;;1.30;99.90;;;;;;4738703;30;20052;-80
2020/12/10 08:36:05;;;;;;;28.42;16.38;;;1.20;99.90;;;;;;4723454;30;20138;-80
2020/12/10 08:38:36;;;;;;;27.58;15.85;;;1.30;99.90;;;;;;4738603;30;20052;-79
2020/12/10 08:41:07;;;;;;;24.20;13.65;;;1.30;99.90;;;;;;4737968;30;20048;-80
2020/12/10 08:44:01;;;;;;;23.52;13.20;;;1.30;99.90;;;;;;4737577;30;20050;-79
2020/12/10 08:46:30;;;;;;;21.83;13.13;;;1.30;99.90;;;;;;4723847;30;20048;-79
2020/12/10 08:49:14;;;;;;;26.20;14.98;;;1.30;99.90;;;;;;4724875;30;20098;-79
2020/12/10 08:51:43;;;;;;;23.35;12.57;;;1.40;99.90;;;;;;4739778;30;20060;-78
2020/12/10 08:54:11;;;;;;;24.00;13.32;;;1.40;99.90;;;;;;4736751;30;20048;-78
2020/12/10 08:56:38;;;;;;;25.30;13.98;;;1.40;99.90;;;;;;4721305;30;20060;-78
2020/12/10 08:59:06;;;;;;;25.13;14.35;;;1.40;99.90;;;;;;4735537;30;20067;-78
2020/12/10 09:01:33;;;;;;;23.33;13.50;;;1.40;99.90;;;;;;4734972;30;20048;-79
2020/12/10 09:04:00;;;;;;;23.77;14.32;;;1.40;99.90;;;;;;4735145;30;20135;-79
2020/12/10 09:06:36;;;;;;;24.70;14.52;;;1.40;99.90;;;;;;4720739;30;20048;-78
2020/12/10 09:09:07;;;;;;;29.13;14.73;;;1.50;99.90;;;;;;4733355;30;20580;-78
2020/12/10 09:11:38;;;;;;;25.35;15.02;;;1.50;99.90;;;;;;4734442;30;20040;-78
2020/12/10 09:14:09;;;;;;;26.52;13.38;;;1.50;99.90;;;;;;4720522;30;20417;-78
2020/12/10 09:16:35;;;;;;;27.95;14.80;;;1.60;99.90;;;;;;4719239;30;20143;-78
2020/12/10 09:19:02;;;;;;;53.95;24.05;;;1.60;99.90;;;;;;4719623;30;20143;-78
2020/12/10 09:21:35;;;;;;;55.08;24.00;;;1.60;99.90;;;;;;4719766;30;20131;-79
2020/12/10 09:24:07;;;;;;;43.72;23.10;;;1.60;99.90;;;;;;4720177;30;20052;-78
2020/12/10 09:26:38;;;;;;;34.17;17.05;;;1.70;99.90;;;;;;4734152;30;20151;-79
2020/12/10 09:29:09;;;;;;;28.98;16.27;;;1.70;99.90;;;;;;4733472;30;20106;-78
2020/12/10 09:31:40;;;;;;;33.22;18.25;;;1.70;99.90;;;;;;4734324;30;20062;-78
2020/12/10 09:34:07;;;;;;;32.35;16.88;;;1.70;99.90;;;;;;4719693;30;20063;-79
2020/12/10 09:36:33;;;;;;;28.98;16.90;;;1.70;99.90;;;;;;4734853;30;20060;-78
2020/12/10 09:39:04;;;;;;;28.33;16.35;;;1.80;99.90;;;;;;4719812;30;20062;-78
2020/12/10 09:41:37;;;;;;;34.92;18.70;;;1.80;99.90;;;;;;4735763;30;20087;-77
2020/12/10 09:44:03;;;;;;;31.20;16.45;;;1.80;99.90;;;;;;4719900;30;20182;-78
2020/12/10 09:46:33;;;;;;;36.30;17.85;;;1.80;99.90;;;;;;4734309;30;20143;-78
2020/12/10 09:49:00;;;;;;;30.80;17.55;;;1.80;99.90;;;;;;4720203;30;20056;-78
2020/12/10 09:51:35;;;;;;;29.88;15.82;;;1.80;99.90;;;;;;4736634;30;20048;-78
2020/12/10 09:54:15;;;;;;;31.23;16.40;;;1.80;99.90;;;;;;4722895;30;20148;-78
2020/12/10 09:57:08;;;;;;;32.97;17.00;;;1.80;99.90;;;;;;4738458;30;20139;-78
2020/12/10 09:59:37;;;;;;;36.50;19.83;;;1.90;99.90;;;;;;4724820;30;20055;-78
2020/12/10 10:02:09;;;;;;;;;;;1.90;99.90;;;;;;4739406;30;20080;-78
2020/12/10 10:04:36;;;;;;;42.05;24.42;;;1.90;99.90;;;;;;4739441;30;19926;-78
2020/12/10 10:07:06;;;;;;;40.40;23.50;;;1.90;99.90;;;;;;4736717;30;20472;-78
2020/12/10 10:09:33;;;;;;;44.10;22.95;;;1.90;99.90;;;;;;4734951;30;20052;-78
2020/12/10 10:12:00;;;;;;;34.63;18.50;;;1.90;99.90;;;;;;4720859;30;20052;-78
2020/12/10 10:14:28;;;;;;;36.00;19.00;;;2.00;99.90;;;;;;4717650;30;20066;-78
2020/12/10 10:17:00;;;;;;;39.65;21.67;;;2.00;99.90;;;;;;4719950;30;20142;-78
2020/12/10 10:19:27;;;;;;;37.58;18.90;;;2.00;99.90;;;;;;4718293;30;20056;-78
2020/12/10 10:21:56;;;;;;;34.13;18.80;;;2.00;99.90;;;;;;4733381;30;20163;-77
2020/12/10 10:24:23;;;;;;;39.20;20.48;;;2.10;99.90;;;;;;4718565;30;20551;-78
2020/12/10 10:26:50;;;;;;;33.75;19.27;;;2.10;99.90;;;;;;4718485;30;20072;-77
2020/12/10 10:29:21;;;;;;;33.63;18.50;;;2.20;99.90;;;;;;4718315;30;20074;-77
2020/12/10 10:31:49;;;;;;;46.13;24.48;;;2.20;99.90;;;;;;4734191;30;20075;-78
2020/12/10 10:34:16;;;;;;;37.08;20.80;;;2.20;99.90;;;;;;4734190;30;20646;-78
2020/12/10 10:36:43;;;;;;;33.20;17.88;;;2.20;99.90;;;;;;4750024;30;20084;-77
2020/12/10 10:39:10;;;;;;;38.28;19.98;;;2.20;99.90;;;;;;4732710;30;20086;-78
2020/12/10 10:41:48;;;;;;;33.53;18.48;;;2.20;99.90;;;;;;4719502;30;20055;-77
2020/12/10 10:44:15;;;;;;;33.80;18.25;;;2.20;99.90;;;;;;4733702;30;20104;-77
2020/12/10 10:46:41;;;;;;;34.50;17.73;;;2.30;99.90;;;;;;4733751;30;20135;-78
2020/12/10 10:49:08;;;;;;;31.80;18.17;;;2.30;99.90;;;;;;4718799;30;20056;-77
2020/12/10 10:51:39;;;;;;;32.60;16.92;;;2.30;99.90;;;;;;4720224;30;20116;-77
2020/12/10 10:54:06;;;;;;;34.67;17.23;;;2.30;99.90;;;;;;4719393;30;20124;-77
2020/12/10 10:56:35;;;;;;;35.40;19.20;;;2.20;99.90;;;;;;4734078;30;20761;-77
2020/12/10 10:59:01;;;;;;;32.08;17.27;;;2.30;99.90;;;;;;4733953;30;20409;-78
2020/12/10 11:01:33;;;;;;;34.75;18.13;;;2.30;99.90;;;;;;4719742;30;20520;-77
2020/12/10 11:04:06;;;;;;;32.40;16.20;;;2.30;99.90;;;;;;4719426;30;20523;-78
2020/12/10 11:06:32;;;;;;;39.88;19.27;;;2.20;99.90;;;;;;4733237;30;20127;-78
2020/12/10 11:08:58;;;;;;;33.90;16.80;;;2.20;99.90;;;;;;4731334;30;20190;-78
2020/12/10 11:11:25;;;;;;;37.92;16.73;;;2.30;99.90;;;;;;4732822;30;20147;-78
2020/12/10 11:13:51;;;;;;;32.13;15.52;;;2.30;99.90;;;;;;4717951;30;20048;-78
2020/12/10 11:16:17;;;;;;;35.28;16.98;;;2.30;99.90;;;;;;4735478;30;20051;-77
2020/12/10 11:18:44;;;;;;;34.50;15.90;;;2.30;99.90;;;;;;4735380;30;20119;-77
2020/12/10 11:21:12;;;;;;;36.25;18.67;;;2.30;99.90;;;;;;4735841;30;20147;-77
2020/12/10 11:23:38;;;;;;;36.28;17.58;;;2.30;99.90;;;;;;4720961;30;20062;-77
2020/12/10 11:26:05;;;;;;;34.88;17.23;;;2.30;99.90;;;;;;4735861;30;20141;-77
2020/12/10 11:28:36;;;;;;;38.30;17.60;;;2.30;99.90;;;;;;4721132;30;20043;-77
2020/12/10 11:31:08;;;;;;;33.80;17.23;;;2.30;99.90;;;;;;4717476;30;20051;-77
2020/12/10 11:33:40;;;;;;;37.70;18.45;;;2.40;99.90;;;;;;4722101;30;20138;-77
2020/12/10 11:36:11;;;;;;;38.85;17.17;;;2.40;99.90;;;;;;4735673;30;20052;-79
2020/12/10 11:38:37;;;;;;;37.95;17.73;;;2.40;99.90;;;;;;4734225;30;20056;-78
2020/12/10 11:41:04;;;;;;;38.30;18.00;;;2.40;99.90;;;;;;4736234;30;20052;-78
2020/12/10 11:43:31;;;;;;;37.40;18.17;;;2.30;99.90;;;;;;4736676;30;20164;-77
2020/12/10 11:46:04;;;;;;;42.67;19.90;;;2.40;99.90;;;;;;4739634;30;20044;-78
2020/12/10 11:48:31;;;;;;;36.40;17.33;;;2.40;99.90;;;;;;4739889;30;20056;-78
2020/12/10 11:50:58;;;;;;;34.05;16.63;;;2.40;99.90;;;;;;4740194;30;20059;-78
2020/12/10 11:53:32;;;;;;;37.47;18.27;;;2.40;99.90;;;;;;4738435;30;20048;-79
2020/12/10 11:56:04;;;;;;;36.50;17.23;;;2.40;99.90;;;;;;4737513;30;20059;-78
2020/12/10 11:58:32;;;;;;;38.55;18.80;;;2.40;99.90;;;;;;4721037;30;20456;-79
2020/12/10 12:01:00;;;;;;;34.15;17.55;;;2.50;99.90;;;;;;4737701;30;20052;-79
2020/12/10 12:03:27;;;;;;;36.78;17.65;;;2.50;99.90;;;;;;4737881;30;20096;-78
2020/12/10 12:05:53;;;;;;;35.28;17.55;;;2.40;99.90;;;;;;4738713;30;20056;-78
2020/12/10 12:08:25;;;;;;;37.17;17.35;;;2.50;99.90;;;;;;4737453;30;20118;-78
2020/12/10 12:10:58;;;;;;;32.85;17.90;;;2.40;99.90;;;;;;4737083;30;20509;-79
2020/12/10 12:13:25;;;;;;;36.95;17.63;;;2.40;99.90;;;;;;4737760;30;20048;-78
2020/12/10 12:15:51;;;;;;;35.90;17.35;;;2.40;99.90;;;;;;4739888;30;20206;-78
2020/12/10 12:18:18;;;;;;;36.88;18.77;;;2.50;99.90;;;;;;4738467;30;20048;-78
2020/12/10 12:20:44;;;;;;;36.72;17.15;;;2.50;99.90;;;;;;4726281;30;20052;-79
2020/12/10 12:23:12;;;;;;;32.70;17.08;;;2.50;99.90;;;;;;4739014;30;20056;-77
2020/12/10 12:25:38;;;;;;;38.05;16.75;;;2.50;99.90;;;;;;4740715;30;20048;-78
2020/12/10 12:28:04;;;;;;;33.92;16.63;;;2.40;99.90;;;;;;4722225;30;20052;-78
2020/12/10 12:30:32;;;;;;;33.40;17.05;;;2.40;99.90;;;;;;4734785;30;20166;-78
2020/12/10 12:32:59;;;;;;;37.38;18.55;;;2.40;99.90;;;;;;4734858;30;20083;-78
2020/12/10 12:35:26;;;;;;;35.83;16.75;;;2.50;99.90;;;;;;4735163;30;20138;-78
2020/12/10 12:37:57;;;;;;;31.50;16.23;;;2.40;99.90;;;;;;4733845;30;20052;-79
2020/12/10 12:40:31;;;;;;;33.42;16.35;;;2.40;99.90;;;;;;4721155;30;20056;-78
2020/12/10 12:43:00;;;;;;;33.53;14.30;;;2.40;99.90;;;;;;4720690;30;20060;-78
2020/12/10 12:45:31;;;;;;;32.45;14.35;;;2.40;99.90;;;;;;4734629;30;20134;-78
2020/12/10 12:47:59;;;;;;;31.00;17.15;;;2.30;99.90;;;;;;4719748;30;20095;-78
2020/12/10 12:50:26;;;;;;;33.38;16.75;;;2.30;99.90;;;;;;4735115;30;20052;-78
2020/12/10 12:52:53;;;;;;;32.72;16.63;;;2.20;99.90;;;;;;4734948;30;20472;-78
2020/12/10 12:55:19;;;;;;;33.83;16.95;;;2.30;99.90;;;;;;4734621;30;20147;-78
2020/12/10 12:57:45;;;;;;;29.85;14.45;;;2.30;99.90;;;;;;4733804;30;20055;-79
2020/12/10 13:00:12;;;;;;;32.80;15.48;;;2.30;99.90;;;;;;4716403;30;20118;-77
2020/12/10 13:02:38;;;;;;;34.97;15.25;;;2.30;99.90;;;;;;4720152;30;20150;-77
2020/12/10 13:05:09;;;;;;;27.80;14.23;;;2.30;99.90;;;;;;4734683;30;20425;-78
2020/12/10 13:07:35;;;;;;;32.42;16.42;;;2.30;99.90;;;;;;4733880;30;20152;-79
2020/12/10 13:10:07;;;;;;;98.28;37.97;;;2.30;99.90;;;;;;4749658;30;20048;-77
2020/12/10 13:12:33;;;;;;;318.40;120.45;;;2.30;99.90;;;;;;4734698;30;20055;-78
2020/12/10 13:15:04;;;;;;;121.03;48.83;;;2.20;99.90;;;;;;4732857;30;20505;-78
2020/12/10 13:17:31;;;;;;;238.13;94.00;;;2.20;99.90;;;;;;4735181;30;20056;-77
2020/12/10 13:19:59;;;;;;;148.52;58.58;;;2.20;99.90;;;;;;4734231;30;20056;-77
2020/12/10 13:22:30;;;;;;;236.15;85.88;;;2.20;99.90;;;;;;4733986;30;20512;-77
2020/12/10 13:24:56;;;;;;;221.88;93.38;;;2.20;99.90;;;;;;4734151;30;20062;-78
2020/12/10 13:27:27;;;;;;;178.43;65.85;;;2.30;99.90;;;;;;4734028;30;20055;-78
2020/12/10 13:29:59;;;;;;;59.03;27.13;;;2.30;99.90;;;;;;4731652;30;20605;-78
2020/12/10 13:32:25;;;;;;;60.90;29.70;;;2.30;99.90;;;;;;4719361;30;20076;-78
2020/12/10 13:34:56;;;;;;;47.40;22.77;;;2.30;99.90;;;;;;4733022;30;20062;-77
2020/12/10 13:37:22;;;;;;;44.65;21.88;;;2.30;99.90;;;;;;4721064;30;20070;-80
2020/12/10 13:39:49;;;;;;;32.45;15.40;;;2.40;99.90;;;;;;4739524;30;20067;-79
2020/12/10 13:42:16;;;;;;;33.10;16.20;;;2.50;99.90;;;;;;4739264;30;20076;-78
2020/12/10 13:44:45;;;;;;;31.90;16.42;;;2.50;99.90;;;;;;4739323;30;20841;-78
2020/12/10 13:47:16;;;;;;;28.90;14.88;;;2.60;99.90;;;;;;4723919;30;20362;-78
2020/12/10 13:49:43;;;;;;;32.22;15.50;;;2.60;99.90;;;;;;4737228;30;20147;-78
2020/12/10 13:52:09;;;;;;;32.25;15.23;;;2.60;99.90;;;;;;4717431;30;20098;-79
2020/12/10 13:54:36;;;;;;;34.53;15.68;;;2.50;99.90;;;;;;4720820;30;20135;-77
2020/12/10 13:57:07;;;;;;;31.60;17.40;;;2.50;99.90;;;;;;4734618;30;20156;-79
2020/12/10 13:59:33;;;;;;;33.70;16.23;;;2.50;99.90;;;;;;4719772;30;20087;-78
2020/12/10 14:02:07;;;;;;;38.45;17.15;;;2.40;99.90;;;;;;4724724;30;20054;-78
2020/12/10 14:04:38;;;;;;;;;;;2.40;99.90;;;;;;4722766;30;20054;-77
2020/12/10 14:07:04;;;;;;;31.02;14.70;;;2.30;99.90;;;;;;4736980;30;19988;-77
2020/12/10 14:09:31;;;;;;;35.42;16.10;;;2.30;99.90;;;;;;4721101;30;20476;-78
2020/12/10 14:12:02;;;;;;;34.53;16.20;;;2.30;99.90;;;;;;4721878;30;20482;-78
2020/12/10 14:14:35;;;;;;;33.78;16.42;;;2.20;99.90;;;;;;4722542;30;20063;-78
2020/12/10 14:17:02;;;;;;;33.30;16.67;;;2.20;99.90;;;;;;4721259;30;20056;-77
2020/12/10 14:19:28;;;;;;;36.22;15.70;;;2.20;99.90;;;;;;4730953;30;20576;-77
2020/12/10 14:21:55;;;;;;;33.33;16.55;;;2.20;99.90;;;;;;4734164;30;20095;-77
2020/12/10 14:24:26;;;;;;;31.38;16.02;;;2.20;99.90;;;;;;4733696;30;20168;-77
2020/12/10 14:27:03;;;;;;;36.00;17.23;;;2.10;99.90;;;;;;4719648;30;20400;-77
2020/12/10 14:29:40;;;;;;;;;;;2.10;99.90;;;;;;4735371;30;20052;-78
2020/12/10 14:32:06;;;;;;;38.20;16.58;;;2.00;99.90;;;;;;4737748;30;19926;-78
2020/12/10 14:34:33;;;;;;;36.30;17.05;;;2.00;99.90;;;;;;4722126;30;20094;-77
2020/12/10 14:36:59;;;;;;;31.50;15.35;;;2.00;99.90;;;;;;4737347;30;20123;-77
2020/12/10 14:39:25;;;;;;;32.83;15.25;;;2.00;99.90;;;;;;4721998;30;20493;-77
2020/12/10 14:41:56;;;;;;;32.75;15.20;;;2.00;99.90;;;;;;4722337;30;20831;-77
2020/12/10 14:44:27;;;;;;;32.45;14.82;;;2.00;99.90;;;;;;4722963;30;20052;-77
2020/12/10 14:46:59;;;;;;;30.23;15.90;;;2.00;99.90;;;;;;4723038;30;20054;-77
2020/12/10 14:49:25;;;;;;;31.83;16.27;;;2.00;99.90;;;;;;4721288;30;20048;-77
2020/12/10 14:51:52;;;;;;;32.22;15.63;;;2.00;99.90;;;;;;4735590;30;20586;-79
2020/12/10 14:54:18;;;;;;;34.53;17.92;;;2.00;99.90;;;;;;4733003;30;20084;-78
2020/12/10 14:56:49;;;;;;;27.95;14.63;;;2.00;99.90;;;;;;4743299;30;20047;-78
2020/12/10 14:59:21;;;;;;;32.78;15.10;;;2.00;99.90;;;;;;4736844;30;20040;-78
2020/12/10 15:01:52;;;;;;;34.22;16.02;;;2.00;99.90;;;;;;4738507;30;20056;-78
2020/12/10 15:04:18;;;;;;;31.38;15.25;;;2.00;99.90;;;;;;4726926;30;20091;-78
2020/12/10 15:06:46;;;;;;;29.10;14.85;;;2.00;99.90;;;;;;4733414;30;20855;-78
2020/12/10 15:09:18;;;;;;;;;;;2.10;99.90;;;;;;4746581;30;20138;-77
2020/12/10 15:11:44;;;;;;;29.73;14.23;;;2.10;99.90;;;;;;4749564;30;20367;-78
2020/12/10 15:14:11;;;;;;;32.92;15.43;;;2.00;99.90;;;;;;4736601;30;20075;-77
2020/12/10 15:16:37;;;;;;;30.02;14.15;;;2.00;99.90;;;;;;4736270;30;20087;-78
2020/12/10 15:19:08;;;;;;;33.65;15.25;;;2.00;99.90;;;;;;4735019;30;20079;-78
2020/12/10 15:21:34;;;;;;;33.88;15.32;;;2.00;99.90;;;;;;4736230;30;20048;-78
2020/12/10 15:24:01;;;;;;;35.17;15.75;;;1.90;99.90;;;;;;4734383;30;20051;-78
2020/12/10 15:26:32;;;;;;;32.38;16.98;;;1.90;99.90;;;;;;4727271;30;20063;-77
2020/12/10 15:28:59;;;;;;;35.13;15.57;;;1.90;99.90;;;;;;4743457;30;20055;-77
2020/12/10 15:31:29;;;;;;;32.53;14.80;;;1.90;99.90;;;;;;4741739;30;20067;-80
2020/12/10 15:33:59;;;;;;;32.08;13.75;;;1.90;99.90;;;;;;4748730;30;20493;-80
2020/12/10 15:36:26;;;;;;;32.08;15.25;;;1.90;99.90;;;;;;4761789;30;20052;-80
2020/12/10 15:38:53;;;;;;;29.95;14.45;;;1.90;99.90;;;;;;4767229;30;20056;-80
2020/12/10 15:41:23;;;;;;;29.25;13.70;;;1.80;99.90;;;;;;4739007;30;20060;-80
2020/12/10 15:43:50;;;;;;;27.65;13.52;;;1.80;99.90;;;;;;4725290;30;20484;-79
2020/12/10 15:46:18;;;;;;;29.67;14.43;;;1.70;99.90;;;;;;4748105;30;20052;-80
2020/12/10 15:48:46;;;;;;;30.08;13.95;;;1.70;99.90;;;;;;4749007;30;20567;-80
2020/12/10 15:51:16;;;;;;;31.10;14.35;;;1.70;99.90;;;;;;4737502;30;20535;-80
2020/12/10 15:53:44;;;;;;;34.67;15.23;;;1.60;99.90;;;;;;4749348;30;20090;-79
2020/12/10 15:56:12;;;;;;;33.45;14.50;;;1.60;99.90;;;;;;4743450;30;20055;-79
2020/12/10 15:58:41;;;;;;;34.88;14.20;;;1.60;99.90;;;;;;4739416;30;20468;-80
2020/12/10 16:01:12;;;;;;;35.50;17.05;;;1.60;99.90;;;;;;4736326;30;20048;-80
2020/12/10 16:03:40;;;;;;;30.60;15.10;;;1.60;99.90;;;;;;4730645;30;20406;-77
2020/12/10 16:06:06;;;;;;;32.05;14.63;;;1.60;99.90;;;;;;4735879;30;20055;-77
2020/12/10 16:08:32;;;;;;;31.30;13.98;;;1.60;99.90;;;;;;4727836;30;20048;-77
2020/12/10 16:11:02;;;;;;;31.45;14.98;;;1.60;99.90;;;;;;4753326;30;20062;-78
2020/12/10 16:13:28;;;;;;;36.22;16.02;;;1.60;99.90;;;;;;4739030;30;20143;-78
2020/12/10 16:15:59;;;;;;;32.15;15.45;;;1.60;99.90;;;;;;4754222;30;20051;-77
2020/12/10 16:18:25;;;;;;;34.40;15.95;;;1.60;99.90;;;;;;4752732;30;20155;-78
2020/12/10 16:20:57;;;;;;;37.67;15.20;;;1.60;99.90;;;;;;4754464;30;20587;-77
2020/12/10 16:23:23;;;;;;;30.85;14.68;;;1.60;99.90;;;;;;4753425;30;20151;-78
2020/12/10 16:25:55;;;;;;;32.40;14.90;;;1.60;99.90;;;;;;4738926;30;20148;-77
2020/12/10 16:28:21;;;;;;;33.65;15.30;;;1.60;99.90;;;;;;4752562;30;20586;-77
2020/12/10 16:30:47;;;;;;;26.77;13.75;;;1.60;99.90;;;;;;4753955;30;20048;-77
2020/12/10 16:33:19;;;;;;;29.48;13.10;;;1.60;99.90;;;;;;4735963;30;20428;-77
2020/12/10 16:35:45;;;;;;;48.25;24.42;;;1.60;99.90;;;;;;4752520;30;20060;-77
2020/12/10 16:38:11;;;;;;;47.97;24.02;;;1.60;99.90;;;;;;4737167;30;20405;-77
2020/12/10 16:40:38;;;;;;;39.78;21.52;;;1.50;99.90;;;;;;4753171;30;20106;-77
2020/12/10 16:43:04;;;;;;;33.70;16.63;;;1.50;99.90;;;;;;4753482;30;20122;-77
2020/12/10 16:45:36;;;;;;;32.33;15.68;;;1.50;99.90;;;;;;4741648;30;20048;-77
2020/12/10 16:48:07;;;;;;;31.85;16.25;;;1.50;99.90;;;;;;4750305;30;20040;-78
2020/12/10 16:50:38;;;;;;;27.95;13.35;;;1.60;99.90;;;;;;4735737;30;20063;-77
2020/12/10 16:53:09;;;;;;;30.00;13.68;;;1.50;99.90;;;;;;4721875;30;20048;-77
2020/12/10 16:55:36;;;;;;;30.20;13.20;;;1.50;99.90;;;;;;4720808;30;20063;-77
2020/12/10 16:58:02;;;;;;;28.20;13.80;;;1.60;99.90;;;;;;4735275;30;20080;-77
2020/12/10 17:00:28;;;;;;;34.90;16.75;;;1.50;99.90;;;;;;4721102;30;20218;-77
2020/12/10 17:02:59;;;;;;;35.42;16.58;;;1.50;99.90;;;;;;4721930;30;20150;-77
2020/12/10 17:05:31;;;;;;;28.10;13.50;;;1.50;99.90;;;;;;4749579;30;20051;-77
2020/12/10 17:07:57;;;;;;;32.72;13.95;;;1.50;99.90;;;;;;4735335;30;20142;-77
2020/12/10 17:10:28;;;;;;;22.60;13.10;;;1.50;99.90;;;;;;4725703;30;20131;-77
2020/12/10 17:12:57;;;;;;;26.05;13.25;;;1.50;99.90;;;;;;4746575;30;21196;-76
2020/12/10 17:15:23;;;;;;;26.48;12.68;;;1.40;99.90;;;;;;4739304;30;20083;-78
2020/12/10 17:17:49;;;;;;;25.17;12.80;;;1.50;99.90;;;;;;4754386;30;20105;-78
2020/12/10 17:20:15;;;;;;;27.35;14.13;;;1.50;99.90;;;;;;4741229;30;20055;-78
2020/12/10 17:22:42;;;;;;;27.35;13.27;;;1.50;99.90;;;;;;4755970;30;20075;-77
2020/12/10 17:25:08;;;;;;;31.45;16.42;;;1.50;99.90;;;;;;4739402;30;20045;-77
2020/12/10 17:27:35;;;;;;;28.70;13.57;;;1.50;99.90;;;;;;4754746;30;20063;-78
2020/12/10 17:30:01;;;;;;;31.92;13.55;;;1.50;99.90;;;;;;4726390;30;20056;-77
2020/12/10 17:32:32;;;;;;;29.98;14.10;;;1.50;99.90;;;;;;4737387;30;20596;-78
2020/12/10 17:34:58;;;;;;;29.35;13.00;;;1.50;99.90;;;;;;4723640;30;20098;-77
2020/12/10 17:37:25;;;;;;;32.67;14.43;;;1.50;99.90;;;;;;4740988;30;20126;-79
2020/12/10 17:39:51;;;;;;;28.35;13.25;;;1.50;99.90;;;;;;4724921;30;20074;-78
2020/12/10 17:42:18;;;;;;;27.30;13.65;;;1.40;99.90;;;;;;4738432;30;20080;-78
2020/12/10 17:44:45;;;;;;;28.95;13.82;;;1.40;99.90;;;;;;4737492;30;20123;-79
2020/12/10 17:47:11;;;;;;;29.73;14.85;;;1.40;99.90;;;;;;4742493;30;20048;-76
2020/12/10 17:49:38;;;;;;;34.78;14.45;;;1.40;99.90;;;;;;4741454;30;20052;-77